Airport View

Enter AWOS ICAO identifier for current METAR.

ex. KFNL

KMAI 280053Z AUTO 00000KT 10SM FEW120 23/21 A2990 RMK AO2 SLP125 T02280211

28 Sep 2020 01:39

Frequency: 133.525

Phone: 850-482-6082

Other Area AWOS: K17J - K1J0 - KBGE - KDHN

TAF KDHN 272345Z 2800/2824 14008KT P6SM BKN015 FM280300 15004KT 5SM BR OVC004 TEMPO 2808/2812 2SM BR FM281400 20006KT P6SM BKN012 PROB30 2816/2821 5SM -RA BKN025